sensor_id;sensor_type;location;lat;lon;timestamp;temperature;humidity
10133;DHT22;5106;50.926;7.080;2022-08-21T00:00:35;16.20;80.00
10133;DHT22;5106;50.926;7.080;2022-08-21T00:03:05;16.20;80.10
10133;DHT22;5106;50.926;7.080;2022-08-21T00:05:32;16.20;80.10
10133;DHT22;5106;50.926;7.080;2022-08-21T00:07:58;16.10;80.00
10133;DHT22;5106;50.926;7.080;2022-08-21T00:10:24;16.10;79.80
10133;DHT22;5106;50.926;7.080;2022-08-21T00:12:50;16.00;80.00
10133;DHT22;5106;50.926;7.080;2022-08-21T00:15:21;16.00;80.40
10133;DHT22;5106;50.926;7.080;2022-08-21T00:17:47;16.00;80.10
10133;DHT22;5106;50.926;7.080;2022-08-21T00:20:14;15.90;80.10
10133;DHT22;5106;50.926;7.080;2022-08-21T00:22:41;15.80;80.40
10133;DHT22;5106;50.926;7.080;2022-08-21T00:25:08;15.80;80.60
10133;DHT22;5106;50.926;7.080;2022-08-21T00:27:34;15.70;80.60
10133;DHT22;5106;50.926;7.080;2022-08-21T00:30:00;15.70;80.70
10133;DHT22;5106;50.926;7.080;2022-08-21T00:32:27;15.70;80.80
10133;DHT22;5106;50.926;7.080;2022-08-21T00:34:53;15.70;80.90
10133;DHT22;5106;50.926;7.080;2022-08-21T00:37:19;15.70;81.00
10133;DHT22;5106;50.926;7.080;2022-08-21T00:39:45;15.70;81.00
10133;DHT22;5106;50.926;7.080;2022-08-21T00:42:13;15.60;81.00
10133;DHT22;5106;50.926;7.080;2022-08-21T00:44:43;15.60;81.10
10133;DHT22;5106;50.926;7.080;2022-08-21T00:47:09;15.60;81.20
10133;DHT22;5106;50.926;7.080;2022-08-21T00:49:35;15.60;81.20
10133;DHT22;5106;50.926;7.080;2022-08-21T00:52:03;15.60;81.00
10133;DHT22;5106;50.926;7.080;2022-08-21T00:54:30;15.50;81.20
10133;DHT22;5106;50.926;7.080;2022-08-21T00:57:02;15.50;81.40
10133;DHT22;5106;50.926;7.080;2022-08-21T00:59:33;15.40;81.60
10133;DHT22;5106;50.926;7.080;2022-08-21T01:02:00;15.40;81.70
10133;DHT22;5106;50.926;7.080;2022-08-21T01:04:26;15.40;81.70
10133;DHT22;5106;50.926;7.080;2022-08-21T01:06:52;15.40;82.00
10133;DHT22;5106;50.926;7.080;2022-08-21T01:09:18;15.30;82.20
10133;DHT22;5106;50.926;7.080;2022-08-21T01:11:45;15.30;82.40
10133;DHT22;5106;50.926;7.080;2022-08-21T01:14:12;15.30;82.50
10133;DHT22;5106;50.926;7.080;2022-08-21T01:16:40;15.30;82.70
10133;DHT22;5106;50.926;7.080;2022-08-21T01:19:08;15.30;82.40
10133;DHT22;5106;50.926;7.080;2022-08-21T01:21:34;15.30;82.50
10133;DHT22;5106;50.926;7.080;2022-08-21T01:24:00;15.30;82.50
10133;DHT22;5106;50.926;7.080;2022-08-21T01:26:30;15.30;82.60
10133;DHT22;5106;50.926;7.080;2022-08-21T01:31:31;15.30;82.70
10133;DHT22;5106;50.926;7.080;2022-08-21T01:33:59;15.30;82.50
10133;DHT22;5106;50.926;7.080;2022-08-21T01:36:25;15.30;82.40
10133;DHT22;5106;50.926;7.080;2022-08-21T01:38:51;15.30;82.40
10133;DHT22;5106;50.926;7.080;2022-08-21T01:41:17;15.20;82.50
10133;DHT22;5106;50.926;7.080;2022-08-21T01:43:44;15.30;82.70
10133;DHT22;5106;50.926;7.080;2022-08-21T01:46:11;15.30;82.70
10133;DHT22;5106;50.926;7.080;2022-08-21T01:48:37;15.30;82.60
10133;DHT22;5106;50.926;7.080;2022-08-21T01:51:03;15.20;82.60
10133;DHT22;5106;50.926;7.080;2022-08-21T01:53:29;15.20;82.70
10133;DHT22;5106;50.926;7.080;2022-08-21T01:55:55;15.20;82.70
10133;DHT22;5106;50.926;7.080;2022-08-21T01:58:21;15.20;82.60
10133;DHT22;5106;50.926;7.080;2022-08-21T02:00:47;15.20;82.60
10133;DHT22;5106;50.926;7.080;2022-08-21T02:03:13;15.20;82.50
10133;DHT22;5106;50.926;7.080;2022-08-21T02:05:39;15.20;82.40
10133;DHT22;5106;50.926;7.080;2022-08-21T02:08:06;15.20;82.40
10133;DHT22;5106;50.926;7.080;2022-08-21T02:10:32;15.10;82.30
10133;DHT22;5106;50.926;7.080;2022-08-21T02:12:58;15.10;82.30
10133;DHT22;5106;50.926;7.080;2022-08-21T02:15:27;15.10;82.40
10133;DHT22;5106;50.926;7.080;2022-08-21T02:17:56;15.10;82.30
10133;DHT22;5106;50.926;7.080;2022-08-21T02:20:32;15.00;82.30
10133;DHT22;5106;50.926;7.080;2022-08-21T02:22:58;15.00;82.30
10133;DHT22;5106;50.926;7.080;2022-08-21T02:25:25;14.90;82.30
10133;DHT22;5106;50.926;7.080;2022-08-21T02:27:51;14.90;82.50
10133;DHT22;5106;50.926;7.080;2022-08-21T02:30:29;14.80;82.60
10133;DHT22;5106;50.926;7.080;2022-08-21T02:32:56;14.80;82.70
10133;DHT22;5106;50.926;7.080;2022-08-21T02:35:21;14.80;82.90
10133;DHT22;5106;50.926;7.080;2022-08-21T02:40:13;14.70;83.00
10133;DHT22;5106;50.926;7.080;2022-08-21T02:42:39;14.80;82.90
10133;DHT22;5106;50.926;7.080;2022-08-21T02:45:05;14.70;82.80
10133;DHT22;5106;50.926;7.080;2022-08-21T02:47:31;14.70;82.80
10133;DHT22;5106;50.926;7.080;2022-08-21T02:49:57;14.70;82.80
10133;DHT22;5106;50.926;7.080;2022-08-21T02:52:22;14.70;82.80
10133;DHT22;5106;50.926;7.080;2022-08-21T02:54:49;14.70;82.80
10133;DHT22;5106;50.926;7.080;2022-08-21T02:57:15;14.60;82.80
10133;DHT22;5106;50.926;7.080;2022-08-21T02:59:41;14.60;82.80
10133;DHT22;5106;50.926;7.080;2022-08-21T03:02:07;14.50;82.90
10133;DHT22;5106;50.926;7.080;2022-08-21T03:04:32;14.50;83.00
10133;DHT22;5106;50.926;7.080;2022-08-21T03:06:58;14.50;83.10
10133;DHT22;5106;50.926;7.080;2022-08-21T03:09:24;14.40;83.00
10133;DHT22;5106;50.926;7.080;2022-08-21T03:11:50;14.40;83.10
10133;DHT22;5106;50.926;7.080;2022-08-21T03:14:17;14.30;83.20
10133;DHT22;5106;50.926;7.080;2022-08-21T03:16:43;14.30;83.30
10133;DHT22;5106;50.926;7.080;2022-08-21T03:19:09;14.40;83.20
10133;DHT22;5106;50.926;7.080;2022-08-21T03:21:35;14.40;83.10
10133;DHT22;5106;50.926;7.080;2022-08-21T03:24:01;14.30;83.10
10133;DHT22;5106;50.926;7.080;2022-08-21T03:26:26;14.30;83.10
10133;DHT22;5106;50.926;7.080;2022-08-21T03:28:52;14.30;83.20
10133;DHT22;5106;50.926;7.080;2022-08-21T03:31:18;14.30;83.30
10133;DHT22;5106;50.926;7.080;2022-08-21T03:33:44;14.30;83.40
10133;DHT22;5106;50.926;7.080;2022-08-21T03:36:10;14.30;83.10
10133;DHT22;5106;50.926;7.080;2022-08-21T03:38:37;14.30;83.00
10133;DHT22;5106;50.926;7.080;2022-08-21T03:41:06;14.30;83.10
10133;DHT22;5106;50.926;7.080;2022-08-21T03:43:32;14.20;83.20
10133;DHT22;5106;50.926;7.080;2022-08-21T03:46:00;14.30;83.10
10133;DHT22;5106;50.926;7.080;2022-08-21T03:48:27;14.30;83.10
10133;DHT22;5106;50.926;7.080;2022-08-21T03:50:53;14.30;83.10
10133;DHT22;5106;50.926;7.080;2022-08-21T03:53:19;14.20;83.30
10133;DHT22;5106;50.926;7.080;2022-08-21T03:55:46;14.20;83.40
10133;DHT22;5106;50.926;7.080;2022-08-21T03:58:13;14.20;83.50
10133;DHT22;5106;50.926;7.080;2022-08-21T04:00:39;14.20;83.50
10133;DHT22;5106;50.926;7.080;2022-08-21T04:03:04;14.20;83.50
10133;DHT22;5106;50.926;7.080;2022-08-21T04:05:31;14.10;83.50
10133;DHT22;5106;50.926;7.080;2022-08-21T04:08:00;14.10;83.40
10133;DHT22;5106;50.926;7.080;2022-08-21T04:10:29;14.00;83.40
10133;DHT22;5106;50.926;7.080;2022-08-21T04:12:56;14.00;83.70
10133;DHT22;5106;50.926;7.080;2022-08-21T04:15:23;14.00;83.80
10133;DHT22;5106;50.926;7.080;2022-08-21T04:17:50;14.00;83.90
10133;DHT22;5106;50.926;7.080;2022-08-21T04:20:17;14.00;83.90
10133;DHT22;5106;50.926;7.080;2022-08-21T04:22:43;14.00;83.70
10133;DHT22;5106;50.926;7.080;2022-08-21T04:25:10;14.00;83.70
10133;DHT22;5106;50.926;7.080;2022-08-21T04:27:36;13.90;83.60
10133;DHT22;5106;50.926;7.080;2022-08-21T04:30:03;13.90;83.50
10133;DHT22;5106;50.926;7.080;2022-08-21T04:32:29;13.90;83.40
10133;DHT22;5106;50.926;7.080;2022-08-21T04:35:04;13.80;83.30
10133;DHT22;5106;50.926;7.080;2022-08-21T04:37:30;13.80;83.30
10133;DHT22;5106;50.926;7.080;2022-08-21T04:39:56;13.80;83.30
10133;DHT22;5106;50.926;7.080;2022-08-21T04:42:24;13.70;83.10
10133;DHT22;5106;50.926;7.080;2022-08-21T04:44:50;13.70;83.20
10133;DHT22;5106;50.926;7.080;2022-08-21T04:47:16;13.60;83.10
10133;DHT22;5106;50.926;7.080;2022-08-21T04:49:42;13.60;83.20
10133;DHT22;5106;50.926;7.080;2022-08-21T04:52:09;13.50;83.30
10133;DHT22;5106;50.926;7.080;2022-08-21T04:54:35;13.50;83.40
10133;DHT22;5106;50.926;7.080;2022-08-21T04:57:05;13.50;83.50
10133;DHT22;5106;50.926;7.080;2022-08-21T04:59:39;13.50;83.50
10133;DHT22;5106;50.926;7.080;2022-08-21T05:02:07;13.50;83.40
10133;DHT22;5106;50.926;7.080;2022-08-21T05:04:37;13.50;83.40
10133;DHT22;5106;50.926;7.080;2022-08-21T05:07:06;13.50;83.60
10133;DHT22;5106;50.926;7.080;2022-08-21T05:09:32;13.50;83.60
10133;DHT22;5106;50.926;7.080;2022-08-21T05:11:59;13.60;83.70
10133;DHT22;5106;50.926;7.080;2022-08-21T05:14:25;13.60;83.70
10133;DHT22;5106;50.926;7.080;2022-08-21T05:16:52;13.50;83.80
10133;DHT22;5106;50.926;7.080;2022-08-21T05:19:18;13.50;84.20
10133;DHT22;5106;50.926;7.080;2022-08-21T05:21:45;13.50;84.30
10133;DHT22;5106;50.926;7.080;2022-08-21T05:24:11;13.60;84.50
10133;DHT22;5106;50.926;7.080;2022-08-21T05:26:37;13.70;84.50
10133;DHT22;5106;50.926;7.080;2022-08-21T05:29:03;13.70;84.40
10133;DHT22;5106;50.926;7.080;2022-08-21T05:31:29;13.80;84.40
10133;DHT22;5106;50.926;7.080;2022-08-21T05:33:55;13.80;84.50
10133;DHT22;5106;50.926;7.080;2022-08-21T05:36:21;13.90;84.40
10133;DHT22;5106;50.926;7.080;2022-08-21T05:38:47;14.00;84.50
10133;DHT22;5106;50.926;7.080;2022-08-21T05:41:13;14.10;84.50
10133;DHT22;5106;50.926;7.080;2022-08-21T05:43:39;14.10;84.40
10133;DHT22;5106;50.926;7.080;2022-08-21T05:46:06;14.20;84.40
10133;DHT22;5106;50.926;7.080;2022-08-21T05:48:32;14.30;84.50
10133;DHT22;5106;50.926;7.080;2022-08-21T05:51:07;14.30;84.50
10133;DHT22;5106;50.926;7.080;2022-08-21T05:53:33;14.40;84.50
10133;DHT22;5106;50.926;7.080;2022-08-21T05:55:59;14.40;84.50
10133;DHT22;5106;50.926;7.080;2022-08-21T05:58:25;14.50;84.30
10133;DHT22;5106;50.926;7.080;2022-08-21T06:00:51;14.60;84.20
10133;DHT22;5106;50.926;7.080;2022-08-21T06:03:23;14.60;84.30
10133;DHT22;5106;50.926;7.080;2022-08-21T06:05:49;14.70;84.40
10133;DHT22;5106;50.926;7.080;2022-08-21T06:08:15;14.70;84.40
10133;DHT22;5106;50.926;7.080;2022-08-21T06:10:42;14.80;84.20
10133;DHT22;5106;50.926;7.080;2022-08-21T06:13:09;14.80;84.30
10133;DHT22;5106;50.926;7.080;2022-08-21T06:15:34;14.90;84.30
10133;DHT22;5106;50.926;7.080;2022-08-21T06:18:00;14.90;84.30
10133;DHT22;5106;50.926;7.080;2022-08-21T06:20:26;15.00;84.10
10133;DHT22;5106;50.926;7.080;2022-08-21T06:22:51;15.00;84.10
10133;DHT22;5106;50.926;7.080;2022-08-21T06:25:17;15.10;84.00
10133;DHT22;5106;50.926;7.080;2022-08-21T06:27:44;15.20;83.80
10133;DHT22;5106;50.926;7.080;2022-08-21T06:30:09;15.30;83.80
10133;DHT22;5106;50.926;7.080;2022-08-21T06:32:35;15.40;83.60
10133;DHT22;5106;50.926;7.080;2022-08-21T06:35:02;15.40;83.40
10133;DHT22;5106;50.926;7.080;2022-08-21T06:37:28;15.50;83.20
10133;DHT22;5106;50.926;7.080;2022-08-21T06:39:54;15.60;83.20
10133;DHT22;5106;50.926;7.080;2022-08-21T06:42:20;15.70;82.90
10133;DHT22;5106;50.926;7.080;2022-08-21T06:44:47;15.80;82.80
10133;DHT22;5106;50.926;7.080;2022-08-21T06:47:13;15.80;82.90
10133;DHT22;5106;50.926;7.080;2022-08-21T06:49:39;15.90;82.90
10133;DHT22;5106;50.926;7.080;2022-08-21T06:52:11;16.00;82.80
10133;DHT22;5106;50.926;7.080;2022-08-21T06:54:38;16.10;82.50
10133;DHT22;5106;50.926;7.080;2022-08-21T06:57:04;16.20;82.40
10133;DHT22;5106;50.926;7.080;2022-08-21T06:59:31;16.30;82.30
10133;DHT22;5106;50.926;7.080;2022-08-21T07:01:57;16.40;82.20
10133;DHT22;5106;50.926;7.080;2022-08-21T07:04:23;16.40;82.10
10133;DHT22;5106;50.926;7.080;2022-08-21T07:06:48;16.50;82.10
10133;DHT22;5106;50.926;7.080;2022-08-21T07:09:14;16.60;81.70
10133;DHT22;5106;50.926;7.080;2022-08-21T07:11:40;16.60;81.70
10133;DHT22;5106;50.926;7.080;2022-08-21T07:14:06;16.70;81.20
10133;DHT22;5106;50.926;7.080;2022-08-21T07:16:32;16.80;80.80
10133;DHT22;5106;50.926;7.080;2022-08-21T07:18:57;16.80;80.50
10133;DHT22;5106;50.926;7.080;2022-08-21T07:21:23;16.80;80.60
10133;DHT22;5106;50.926;7.080;2022-08-21T07:23:50;16.90;80.60
10133;DHT22;5106;50.926;7.080;2022-08-21T07:26:20;16.90;80.40
10133;DHT22;5106;50.926;7.080;2022-08-21T07:28:47;17.00;80.40
10133;DHT22;5106;50.926;7.080;2022-08-21T07:31:15;17.10;80.60
10133;DHT22;5106;50.926;7.080;2022-08-21T07:33:42;17.20;79.20
10133;DHT22;5106;50.926;7.080;2022-08-21T07:36:08;17.20;79.30
10133;DHT22;5106;50.926;7.080;2022-08-21T07:38:34;17.40;78.90
10133;DHT22;5106;50.926;7.080;2022-08-21T07:41:01;17.50;78.70
10133;DHT22;5106;50.926;7.080;2022-08-21T07:43:28;17.60;78.80
10133;DHT22;5106;50.926;7.080;2022-08-21T07:45:54;17.70;78.60
10133;DHT22;5106;50.926;7.080;2022-08-21T07:48:21;17.80;78.70
10133;DHT22;5106;50.926;7.080;2022-08-21T07:50:47;17.90;78.70
10133;DHT22;5106;50.926;7.080;2022-08-21T07:53:13;18.00;78.40
10133;DHT22;5106;50.926;7.080;2022-08-21T07:55:39;18.10;78.20
10133;DHT22;5106;50.926;7.080;2022-08-21T07:58:05;18.20;78.10
10133;DHT22;5106;50.926;7.080;2022-08-21T08:00:32;18.30;77.50
10133;DHT22;5106;50.926;7.080;2022-08-21T08:02:58;18.40;76.90
10133;DHT22;5106;50.926;7.080;2022-08-21T08:05:26;18.60;75.60
10133;DHT22;5106;50.926;7.080;2022-08-21T08:07:52;18.70;74.60
10133;DHT22;5106;50.926;7.080;2022-08-21T08:10:19;18.90;74.00
10133;DHT22;5106;50.926;7.080;2022-08-21T08:12:46;18.90;74.80
10133;DHT22;5106;50.926;7.080;2022-08-21T08:15:15;19.00;74.30
10133;DHT22;5106;50.926;7.080;2022-08-21T08:17:41;19.20;72.70
10133;DHT22;5106;50.926;7.080;2022-08-21T08:20:08;19.30;72.50
10133;DHT22;5106;50.926;7.080;2022-08-21T08:22:36;19.40;72.30
10133;DHT22;5106;50.926;7.080;2022-08-21T08:25:03;19.60;72.40
10133;DHT22;5106;50.926;7.080;2022-08-21T08:27:29;19.70;71.40
10133;DHT22;5106;50.926;7.080;2022-08-21T08:29:55;19.80;71.20
10133;DHT22;5106;50.926;7.080;2022-08-21T08:32:21;19.90;70.90
10133;DHT22;5106;50.926;7.080;2022-08-21T08:34:48;19.90;70.50
10133;DHT22;5106;50.926;7.080;2022-08-21T08:37:14;20.00;70.70
10133;DHT22;5106;50.926;7.080;2022-08-21T08:39:40;20.20;70.10
10133;DHT22;5106;50.926;7.080;2022-08-21T08:42:13;20.30;69.70
10133;DHT22;5106;50.926;7.080;2022-08-21T08:44:44;20.50;69.20
10133;DHT22;5106;50.926;7.080;2022-08-21T08:47:13;20.70;68.40
10133;DHT22;5106;50.926;7.080;2022-08-21T08:52:35;20.90;67.30
10133;DHT22;5106;50.926;7.080;2022-08-21T08:55:05;21.00;66.20
10133;DHT22;5106;50.926;7.080;2022-08-21T08:57:34;21.10;66.10
10133;DHT22;5106;50.926;7.080;2022-08-21T09:00:06;21.20;65.60
10133;DHT22;5106;50.926;7.080;2022-08-21T09:02:42;21.20;66.40
10133;DHT22;5106;50.926;7.080;2022-08-21T09:05:58;21.30;66.10
10133;DHT22;5106;50.926;7.080;2022-08-21T09:08:33;21.40;65.10
10133;DHT22;5106;50.926;7.080;2022-08-21T09:22:06;22.10;63.40
10133;DHT22;5106;50.926;7.080;2022-08-21T09:27:14;22.30;63.00
10133;DHT22;5106;50.926;7.080;2022-08-21T09:29:43;22.50;62.20
10133;DHT22;5106;50.926;7.080;2022-08-21T09:32:20;22.60;62.20
10133;DHT22;5106;50.926;7.080;2022-08-21T09:35:16;22.70;63.00
10133;DHT22;5106;50.926;7.080;2022-08-21T09:40:33;22.90;62.30
10133;DHT22;5106;50.926;7.080;2022-08-21T09:43:20;23.10;62.20
10133;DHT22;5106;50.926;7.080;2022-08-21T09:45:48;23.30;60.30
10133;DHT22;5106;50.926;7.080;2022-08-21T09:48:23;23.50;60.80
10133;DHT22;5106;50.926;7.080;2022-08-21T09:50:51;23.50;60.60
10133;DHT22;5106;50.926;7.080;2022-08-21T09:53:26;23.60;60.70
10133;DHT22;5106;50.926;7.080;2022-08-21T09:55:57;23.60;59.80
10133;DHT22;5106;50.926;7.080;2022-08-21T09:58:45;23.60;60.40
10133;DHT22;5106;50.926;7.080;2022-08-21T10:01:23;23.70;60.70
10133;DHT22;5106;50.926;7.080;2022-08-21T10:03:49;23.90;60.90
10133;DHT22;5106;50.926;7.080;2022-08-21T10:06:27;24.00;60.20
10133;DHT22;5106;50.926;7.080;2022-08-21T10:09:12;24.20;59.20
10133;DHT22;5106;50.926;7.080;2022-08-21T10:11:39;24.30;58.80
10133;DHT22;5106;50.926;7.080;2022-08-21T10:14:13;24.50;58.60
10133;DHT22;5106;50.926;7.080;2022-08-21T10:19:52;24.40;56.90
10133;DHT22;5106;50.926;7.080;2022-08-21T10:33:12;24.20;57.70
10133;DHT22;5106;50.926;7.080;2022-08-21T10:35:49;24.20;58.20
10133;DHT22;5106;50.926;7.080;2022-08-21T10:41:19;24.30;59.10
10133;DHT22;5106;50.926;7.080;2022-08-21T10:58:14;24.70;58.10
10133;DHT22;5106;50.926;7.080;2022-08-21T11:00:51;24.70;57.10
10133;DHT22;5106;50.926;7.080;2022-08-21T11:03:37;24.80;56.00
10133;DHT22;5106;50.926;7.080;2022-08-21T11:08:43;24.70;56.90
10133;DHT22;5106;50.926;7.080;2022-08-21T11:11:34;24.70;55.10
10133;DHT22;5106;50.926;7.080;2022-08-21T11:16:45;24.70;56.90
10133;DHT22;5106;50.926;7.080;2022-08-21T11:19:30;24.70;56.40
10133;DHT22;5106;50.926;7.080;2022-08-21T11:22:21;24.70;55.80
10133;DHT22;5106;50.926;7.080;2022-08-21T11:27:46;24.70;55.80
10133;DHT22;5106;50.926;7.080;2022-08-21T11:30:14;24.70;53.60
10133;DHT22;5106;50.926;7.080;2022-08-21T11:36:20;24.70;55.30
10133;DHT22;5106;50.926;7.080;2022-08-21T11:39:01;24.80;55.50
10133;DHT22;5106;50.926;7.080;2022-08-21T11:41:30;24.80;55.80
10133;DHT22;5106;50.926;7.080;2022-08-21T11:46:53;24.90;55.40
10133;DHT22;5106;50.926;7.080;2022-08-21T11:49:42;24.90;54.80
10133;DHT22;5106;50.926;7.080;2022-08-21T11:54:52;25.00;56.00
10133;DHT22;5106;50.926;7.080;2022-08-21T11:57:35;25.00;52.80
10133;DHT22;5106;50.926;7.080;2022-08-21T12:00:20;25.10;53.20
10133;DHT22;5106;50.926;7.080;2022-08-21T12:03:12;25.10;52.90
10133;DHT22;5106;50.926;7.080;2022-08-21T12:05:42;25.10;51.90
10133;DHT22;5106;50.926;7.080;2022-08-21T12:10:41;25.10;52.50
10133;DHT22;5106;50.926;7.080;2022-08-21T12:13:23;25.20;53.90
10133;DHT22;5106;50.926;7.080;2022-08-21T12:15:49;25.30;54.00
10133;DHT22;5106;50.926;7.080;2022-08-21T12:18:23;25.30;53.40
10133;DHT22;5106;50.926;7.080;2022-08-21T12:24:31;25.40;53.20
10133;DHT22;5106;50.926;7.080;2022-08-21T12:26:35;25.50;53.70
10133;DHT22;5106;50.926;7.080;2022-08-21T12:32:01;25.70;51.80
10133;DHT22;5106;50.926;7.080;2022-08-21T12:34:52;25.80;51.50
10133;DHT22;5106;50.926;7.080;2022-08-21T12:37:37;25.90;49.30
10133;DHT22;5106;50.926;7.080;2022-08-21T12:42:48;25.80;50.60
10133;DHT22;5106;50.926;7.080;2022-08-21T12:48:08;25.80;48.90
10133;DHT22;5106;50.926;7.080;2022-08-21T12:50:50;25.80;50.70
10133;DHT22;5106;50.926;7.080;2022-08-21T12:53:33;25.90;50.50
10133;DHT22;5106;50.926;7.080;2022-08-21T12:56:03;25.80;50.10
10133;DHT22;5106;50.926;7.080;2022-08-21T12:58:30;25.80;50.40
10133;DHT22;5106;50.926;7.080;2022-08-21T13:01:04;25.70;50.30
10133;DHT22;5106;50.926;7.080;2022-08-21T13:03:33;25.80;50.10
10133;DHT22;5106;50.926;7.080;2022-08-21T13:06:02;25.70;49.90
10133;DHT22;5106;50.926;7.080;2022-08-21T13:08:29;25.70;52.80
10133;DHT22;5106;50.926;7.080;2022-08-21T13:11:05;25.60;50.70
10133;DHT22;5106;50.926;7.080;2022-08-21T13:13:32;25.60;51.20
10133;DHT22;5106;50.926;7.080;2022-08-21T13:16:06;25.70;50.90
10133;DHT22;5106;50.926;7.080;2022-08-21T13:19:01;25.80;52.20
10133;DHT22;5106;50.926;7.080;2022-08-21T13:21:40;25.90;53.20
10133;DHT22;5106;50.926;7.080;2022-08-21T13:24:26;25.90;51.20
10133;DHT22;5106;50.926;7.080;2022-08-21T13:26:53;26.10;51.70
10133;DHT22;5106;50.926;7.080;2022-08-21T13:29:22;26.30;49.70
10133;DHT22;5106;50.926;7.080;2022-08-21T13:31:54;26.20;50.20
10133;DHT22;5106;50.926;7.080;2022-08-21T13:34:22;26.10;50.60
10133;DHT22;5106;50.926;7.080;2022-08-21T13:36:52;26.00;51.10
10133;DHT22;5106;50.926;7.080;2022-08-21T13:39:19;25.90;50.90
10133;DHT22;5106;50.926;7.080;2022-08-21T13:41:48;25.90;50.00
10133;DHT22;5106;50.926;7.080;2022-08-21T13:44:20;26.00;49.70
10133;DHT22;5106;50.926;7.080;2022-08-21T13:46:48;25.90;50.70
10133;DHT22;5106;50.926;7.080;2022-08-21T13:49:17;26.00;51.00
10133;DHT22;5106;50.926;7.080;2022-08-21T13:51:44;26.10;49.50
10133;DHT22;5106;50.926;7.080;2022-08-21T13:54:26;26.20;50.40
10133;DHT22;5106;50.926;7.080;2022-08-21T13:56:53;26.40;49.70
10133;DHT22;5106;50.926;7.080;2022-08-21T13:59:35;26.50;49.50
10133;DHT22;5106;50.926;7.080;2022-08-21T14:04:56;26.40;49.10
10133;DHT22;5106;50.926;7.080;2022-08-21T14:07:38;26.30;49.90
10133;DHT22;5106;50.926;7.080;2022-08-21T14:10:18;26.30;50.40
10133;DHT22;5106;50.926;7.080;2022-08-21T14:12:48;26.30;50.50
10133;DHT22;5106;50.926;7.080;2022-08-21T14:15:17;26.40;50.00
10133;DHT22;5106;50.926;7.080;2022-08-21T14:17:44;26.60;49.40
10133;DHT22;5106;50.926;7.080;2022-08-21T14:20:28;26.70;50.20
10133;DHT22;5106;50.926;7.080;2022-08-21T14:22:54;26.80;49.80
10133;DHT22;5106;50.926;7.080;2022-08-21T14:27:55;26.80;49.80
10133;DHT22;5106;50.926;7.080;2022-08-21T14:30:25;26.80;49.70
10133;DHT22;5106;50.926;7.080;2022-08-21T14:32:52;26.90;50.00
10133;DHT22;5106;50.926;7.080;2022-08-21T14:35:18;26.90;51.50
10133;DHT22;5106;50.926;7.080;2022-08-21T14:37:47;26.80;49.50
10133;DHT22;5106;50.926;7.080;2022-08-21T14:40:13;26.70;50.10
10133;DHT22;5106;50.926;7.080;2022-08-21T14:42:41;26.60;50.90
10133;DHT22;5106;50.926;7.080;2022-08-21T14:47:42;26.50;50.70
10133;DHT22;5106;50.926;7.080;2022-08-21T14:50:10;26.40;50.30
10133;DHT22;5106;50.926;7.080;2022-08-21T14:52:36;26.30;51.50
10133;DHT22;5106;50.926;7.080;2022-08-21T14:55:03;26.20;51.80
10133;DHT22;5106;50.926;7.080;2022-08-21T14:57:30;26.00;51.30
10133;DHT22;5106;50.926;7.080;2022-08-21T14:59:56;25.90;51.30
10133;DHT22;5106;50.926;7.080;2022-08-21T15:02:22;25.80;51.80
10133;DHT22;5106;50.926;7.080;2022-08-21T15:04:48;25.70;53.90
10133;DHT22;5106;50.926;7.080;2022-08-21T15:07:14;25.70;52.90
10133;DHT22;5106;50.926;7.080;2022-08-21T15:09:39;25.60;52.50
10133;DHT22;5106;50.926;7.080;2022-08-21T15:12:06;25.60;52.70
10133;DHT22;5106;50.926;7.080;2022-08-21T15:14:34;25.60;52.60
10133;DHT22;5106;50.926;7.080;2022-08-21T15:17:01;25.60;53.40
10133;DHT22;5106;50.926;7.080;2022-08-21T15:19:29;25.60;52.40
10133;DHT22;5106;50.926;7.080;2022-08-21T15:21:55;25.50;51.50
10133;DHT22;5106;50.926;7.080;2022-08-21T15:24:21;25.50;51.40
10133;DHT22;5106;50.926;7.080;2022-08-21T15:26:46;25.50;51.30
10133;DHT22;5106;50.926;7.080;2022-08-21T15:29:12;25.40;52.60
10133;DHT22;5106;50.926;7.080;2022-08-21T15:31:54;25.40;51.90
10133;DHT22;5106;50.926;7.080;2022-08-21T15:34:21;25.40;52.90
10133;DHT22;5106;50.926;7.080;2022-08-21T15:36:49;25.40;50.90
10133;DHT22;5106;50.926;7.080;2022-08-21T15:39:14;25.40;50.70
10133;DHT22;5106;50.926;7.080;2022-08-21T15:41:40;25.40;50.80
10133;DHT22;5106;50.926;7.080;2022-08-21T15:44:06;25.40;50.60
10133;DHT22;5106;50.926;7.080;2022-08-21T15:46:34;25.40;50.50
10133;DHT22;5106;50.926;7.080;2022-08-21T15:48:59;25.30;51.90
10133;DHT22;5106;50.926;7.080;2022-08-21T15:51:25;25.30;52.40
10133;DHT22;5106;50.926;7.080;2022-08-21T15:53:51;25.30;51.40
10133;DHT22;5106;50.926;7.080;2022-08-21T15:56:26;25.20;51.70
10133;DHT22;5106;50.926;7.080;2022-08-21T15:59:02;25.20;52.30
10133;DHT22;5106;50.926;7.080;2022-08-21T16:01:28;25.20;51.20
10133;DHT22;5106;50.926;7.080;2022-08-21T16:03:54;25.20;50.60
10133;DHT22;5106;50.926;7.080;2022-08-21T16:06:20;25.30;51.30
10133;DHT22;5106;50.926;7.080;2022-08-21T16:08:46;25.40;51.40
10133;DHT22;5106;50.926;7.080;2022-08-21T16:11:12;25.60;51.80
10133;DHT22;5106;50.926;7.080;2022-08-21T16:13:41;25.80;49.70
10133;DHT22;5106;50.926;7.080;2022-08-21T16:16:12;26.00;50.20
10133;DHT22;5106;50.926;7.080;2022-08-21T16:18:39;26.00;49.20
10133;DHT22;5106;50.926;7.080;2022-08-21T16:21:06;25.90;49.20
10133;DHT22;5106;50.926;7.080;2022-08-21T16:23:33;26.00;50.20
10133;DHT22;5106;50.926;7.080;2022-08-21T16:26:01;26.00;51.50
10133;DHT22;5106;50.926;7.080;2022-08-21T16:28:28;26.00;49.00
10133;DHT22;5106;50.926;7.080;2022-08-21T16:30:54;26.00;50.50
10133;DHT22;5106;50.926;7.080;2022-08-21T16:33:41;26.10;49.80
10133;DHT22;5106;50.926;7.080;2022-08-21T16:36:08;26.10;49.90
10133;DHT22;5106;50.926;7.080;2022-08-21T16:38:35;26.30;50.40
10133;DHT22;5106;50.926;7.080;2022-08-21T16:41:07;26.50;50.20
10133;DHT22;5106;50.926;7.080;2022-08-21T16:43:33;26.60;48.00
10133;DHT22;5106;50.926;7.080;2022-08-21T16:46:00;26.80;48.50
10133;DHT22;5106;50.926;7.080;2022-08-21T16:48:26;26.90;48.70
10133;DHT22;5106;50.926;7.080;2022-08-21T16:50:54;27.10;48.60
10133;DHT22;5106;50.926;7.080;2022-08-21T16:53:19;27.10;48.60
10133;DHT22;5106;50.926;7.080;2022-08-21T16:55:46;27.10;48.10
10133;DHT22;5106;50.926;7.080;2022-08-21T16:58:33;27.10;47.60
10133;DHT22;5106;50.926;7.080;2022-08-21T17:00:59;27.00;47.20
10133;DHT22;5106;50.926;7.080;2022-08-21T17:03:32;27.00;47.50
10133;DHT22;5106;50.926;7.080;2022-08-21T17:05:59;26.90;47.30
10133;DHT22;5106;50.926;7.080;2022-08-21T17:08:25;26.80;47.70
10133;DHT22;5106;50.926;7.080;2022-08-21T17:10:51;26.70;48.00
10133;DHT22;5106;50.926;7.080;2022-08-21T17:13:18;26.50;47.80
10133;DHT22;5106;50.926;7.080;2022-08-21T17:15:44;26.40;49.20
10133;DHT22;5106;50.926;7.080;2022-08-21T17:18:15;26.20;48.70
10133;DHT22;5106;50.926;7.080;2022-08-21T17:20:41;26.00;49.10
10133;DHT22;5106;50.926;7.080;2022-08-21T17:23:08;25.80;49.40
10133;DHT22;5106;50.926;7.080;2022-08-21T17:25:36;25.80;50.40
10133;DHT22;5106;50.926;7.080;2022-08-21T17:28:05;25.70;50.40
10133;DHT22;5106;50.926;7.080;2022-08-21T17:30:31;25.60;50.50